Georgetown, TX (78633)

11:23 AM CST on February 13, 2016 (GMT -0600)
Serenada West | | Change Station
CLOSE
Current Station
Personal Weather Station
Location: Georgetown, TX
Elevation: 790 ft
Nearby Weather Stations

Elev 790 ft 30.69 °N, 97.70 °W | Updated 6 seconds ago

Partly Cloudy
Partly Cloudy
67.6 °F
Feels Like 67.6 °F
N
3.6
Wind Variable Wind from SE
Gusts 7.6 mph

Today
High -- | Low -- °F
--% Chance of Precip.
Yesterday
High -- | Low -- °F
Precip. -- in
Pressure 30.35 in
Visibility 10.0 miles
Clouds Few 3800 ft
Dew Point 13 °F
Humidity 12%
Rainfall 0.00 in
Snow Depth Not available.
7:13 AM 6:16 PM
Waxing Crescent, 32% visible
METAR KGTU 131650Z 12004KT 10SM FEW038 16/07 A3035
Pressure 30.35 in
Visibility 10.0 miles
Clouds Few 3800 ft
Dew Point 13 °F
Humidity 12%
Rainfall 0.00 in
Snow Depth Not available.
7:13 AM 6:16 PM
Waxing Crescent, 32% visible
METAR KGTU 131650Z 12004KT 10SM FEW038 16/07 A3035

10-Day Weather Forecast

Almanac

Astronomy

Feb. 13, 2016 Rise Set
Actual Time
Civil Twilight
Nautical Twilight
Astronomical Twilight
Moon
Length of Visible Light
Length of Day
Tomorrow will be .
, % of the Moon is Illuminated

Today's Extremes

State Highs State Lows

Community

WunderPhotos

Upload Photos

1,892,620 photos uploaded!

WunderBlog® & News

Nearby

Air Quality

  Air Quality AQ Index Pollutant
Not available.

Snow Depth

Station Depth Elevation

Earthquake Activity

City Distance Mag. Time & Date
Minimum magnitude displayed is 2.5.

Coastal Water Temperatures

Place Temperature

Stations

Nearby Weather Stations

Station Location Temp. Windchill Dew Point Humidity Wind Precip. Elev Updated Type
                   

Watches & Warnings

There are currently no watches in effect.